Chopin, Louisiana
Current Conditions -  °F | °C
As of 2:53 PM on Monday 24 Nov 2014 (Local Time) from KAEX Reporting Station
Clear Clear  
Wind Chill: 63°   Ceiling: Unl
Heat Index: 63°   Visibility: 10mi
Dew Point: 34°   Wind: 13mph
Humidity: 34%   Direction: 350°N
Pressure: 29.97"   Gusts: 20mph
Location:  31.4254°N, 92.7765°W
Report Text: KAEX 242053Z 35011G17KT 10SM CLR 17/01 A2997 RMK AO2 SLP153 60000 T01720011 53001
Loading
Personal Weather Stations






























Interactive Weather Map New forecast layout! Learn more

10-Day Weather Forecast

Advertisements
Track Severe Weather on mobile